Time;durP1;ratioP1;P1;durP2;ratioP2;P2;SDS_P1;SDS_P2;PMS_P1;PMS_P2;Temp;Humidity;BMP_temperature;BMP_pressure;BME280_temperature;BME280_humidity;BME280_pressure;Samples;Min_cycle;Max_cycle;Signal;HPM_P1;HPM_P2
2022/01/25 00:26:00;;;;;;;;;68.00;54.50;;;;;5.41;62.14;102810.78;5017956;28;45371;-73
2022/01/25 00:31:18;;;;;;;;;71.00;55.75;;;;;5.35;62.15;102805.72;5018316;28;45540;-74
2022/01/25 00:33:56;;;;;;;;;68.50;54.00;;;;;5.29;62.60;102809.47;5018452;28;45243;-73
2022/01/25 00:36:30;;;;;;;;;29.75;22.00;;;;;4.58;62.22;102692.69;5016986;28;45386;-72
2022/01/25 00:38:56;;;;;;;;;68.75;52.75;;;;;5.21;62.37;102808.06;5017649;28;45370;-76
2022/01/25 00:41:23;;;;;;;;;66.75;53.00;;;;;5.22;62.02;102804.50;5028106;28;48666;-75
2022/01/25 00:43:51;;;;;;;;;67.75;53.50;;;;;4.85;61.64;102764.59;5006255;28;45345;-74
2022/01/25 00:46:19;;;;;;;;;69.25;54.50;;;;;4.75;61.87;102752.66;5017890;28;45289;-74
2022/01/25 00:48:50;;;;;;;;;62.25;51.00;;;;;4.96;61.68;102795.78;5018802;28;45448;-73
2022/01/25 00:56:31;;;;;;;;;69.75;53.00;;;;;4.13;62.17;102712.81;5017431;28;45521;-72
2022/01/25 00:58:58;;;;;;;;;68.75;51.75;;;;;4.55;61.98;102797.31;5017930;28;45551;-73
2022/01/25 01:01:32;;;;;;;;;69.00;52.00;;;;;4.55;61.87;102808.72;5017216;28;45321;-75
2022/01/25 01:03:57;;;;;;;;;64.00;50.00;;;;;4.23;62.56;102754.56;4999336;28;46009;-72
2022/01/25 01:06:25;;;;;;;;;67.00;50.75;;;;;4.53;63.12;102810.53;5017465;28;45558;-73
2022/01/25 01:08:51;;;;;;;;;64.75;51.00;;;;;4.23;63.32;102774.78;5018941;28;45461;-73
2022/01/25 01:11:24;;;;;;;;;61.75;49.00;;;;;4.37;62.81;102819.88;5016545;28;45634;-73
2022/01/25 01:33:35;;;;;;;;;61.00;47.50;;;;;3.89;64.46;102818.00;5016774;28;45613;-72
2022/01/25 01:43:54;;;;;;;;;67.00;51.50;;;;;3.57;64.50;102762.94;5008917;28;46369;-74
2022/01/25 01:49:28;;;;;;;;;54.00;43.50;;;;;3.95;64.63;102832.72;4994030;28;45520;-74
2022/01/25 01:51:59;;;;;;;;;58.75;45.75;;;;;3.82;64.35;102803.34;4984861;28;45444;-74
2022/01/25 01:54:24;;;;;;;;;57.50;45.75;;;;;3.09;64.35;102676.88;5013909;28;46615;-72
2022/01/25 01:56:50;;;;;;;;;51.75;42.75;;;;;3.98;64.27;102835.25;5015027;28;45273;-74
2022/01/25 01:59:17;;;;;;;;;57.25;45.25;;;;;3.96;64.20;102837.09;5016090;28;45522;-76
2022/01/25 02:01:45;;;;;;;;;52.75;40.50;;;;;3.92;64.34;102833.69;5015445;28;45436;-72
2022/01/25 02:04:13;;;;;;;;;53.00;42.00;;;;;3.89;64.98;102840.84;4998289;28;46934;-74
2022/01/25 02:06:39;;;;;;;;;47.50;41.75;;;;;3.80;64.58;102828.81;5016124;28;45278;-73
2022/01/25 02:09:06;;;;;;;;;53.25;44.75;;;;;3.59;64.82;102803.19;5007019;28;45433;-72
2022/01/25 02:11:31;;;;;;;;;45.75;38.75;;;;;3.63;65.64;102818.00;4998455;28;45604;-73
2022/01/25 02:14:02;;;;;;;;;47.00;40.75;;;;;3.60;65.24;102821.59;5016115;28;45767;-72
2022/01/25 02:24:29;;;;;;;;;56.25;45.75;;;;;3.40;66.52;102813.44;5016002;28;45591;-73
2022/01/25 02:26:56;;;;;;;;;60.00;43.25;;;;;3.54;66.85;102836.69;5006519;28;45644;-73
2022/01/25 02:29:21;;;;;;;;;54.00;40.25;;;;;3.46;66.75;102822.94;5016380;28;45500;-75
2022/01/25 02:31:47;;;;;;;;;56.75;43.50;;;;;3.36;67.03;102815.31;5016327;28;45444;-71
2022/01/25 02:34:13;;;;;;;;;59.75;47.00;;;;;3.48;66.82;102831.63;5016640;28;46404;-74
2022/01/25 02:36:39;;;;;;;;;58.00;46.75;;;;;3.33;67.24;102819.81;5015943;28;45487;-74
2022/01/25 02:39:04;;;;;;;;;52.25;41.25;;;;;2.67;67.27;102700.91;5016565;28;45634;-72
2022/01/25 02:41:29;;;;;;;;;45.75;41.25;;;;;3.26;67.00;102784.09;5016288;28;45527;-72
2022/01/25 02:43:56;;;;;;;;;46.50;38.25;;;;;3.41;66.86;102793.28;4995715;28;47502;-72
2022/01/25 02:48:29;;;;;;;;;49.00;41.00;;;;;3.31;66.16;102783.03;5015795;28;45276;-72
2022/01/25 02:49:08;;;;;;;;;50.00;41.25;;;;;3.75;65.16;102838.63;5015755;28;45432;-74
2022/01/25 02:51:41;;;;;;;;;51.25;43.75;;;;;3.76;65.70;102827.19;4999869;28;45702;-73
2022/01/25 02:54:08;;;;;;;;;56.25;44.25;;;;;3.89;64.85;102833.81;4996822;28;48713;-72
2022/01/25 02:56:35;;;;;;;;;48.25;39.50;;;;;3.93;64.97;102829.28;5015695;28;45297;-71
2022/01/25 02:59:01;;;;;;;;;49.00;39.25;;;;;3.95;65.49;102838.84;5015419;28;45499;-74
2022/01/25 03:01:28;;;;;;;;;52.75;42.50;;;;;3.85;65.35;102813.78;5003142;28;45516;-73
2022/01/25 03:03:54;;;;;;;;;45.25;40.25;;;;;3.93;65.15;102835.41;5001052;28;47600;-72
2022/01/25 03:06:22;;;;;;;;;46.00;38.75;;;;;3.45;65.17;102755.47;5019090;28;45300;-71
2022/01/25 03:08:48;;;;;;;;;53.00;41.50;;;;;3.80;65.31;102806.91;5018994;28;45295;-71
2022/01/25 03:11:15;;;;;;;;;53.75;40.75;;;;;3.70;65.37;102782.69;5018884;28;45464;-73
2022/01/25 03:13:54;;;;;;;;;50.00;39.75;;;;;3.89;65.19;102815.38;5018895;28;46573;-74
2022/01/25 03:16:34;;;;;;;;;56.50;41.00;;;;;4.03;64.95;102835.13;5018403;28;45527;-72
2022/01/25 03:19:03;;;;;;;;;53.00;41.75;;;;;3.41;64.80;102736.31;5018629;28;45389;-73
2022/01/25 03:23:57;;;;;;;;;42.75;37.75;;;;;3.55;64.98;102754.25;5019170;28;45583;-72
2022/01/25 03:26:24;;;;;;;;;50.75;40.50;;;;;3.74;64.46;102771.16;5020886;28;45269;-72
2022/01/25 03:28:50;;;;;;;;;44.75;39.50;;;;;3.94;64.58;102805.56;5020028;28;45353;-74
2022/01/25 03:31:16;;;;;;;;;53.00;42.50;;;;;3.63;64.70;102761.00;5000725;28;45544;-74
2022/01/25 03:33:42;;;;;;;;;53.75;39.50;;;;;3.87;64.33;102801.41;5018439;28;46455;-73
2022/01/25 03:36:09;;;;;;;;;46.25;39.75;;;;;4.02;64.63;102817.63;5018586;28;45553;-74
2022/01/25 03:38:39;;;;;;;;;50.00;39.00;;;;;4.08;64.18;102825.31;5018699;28;45263;-74
2022/01/25 03:41:07;;;;;;;;;46.00;36.25;;;;;2.47;63.78;102542.28;5018022;28;45471;-73
2022/01/25 03:43:33;;;;;;;;;54.50;40.75;;;;;4.03;64.02;102809.69;5008136;28;46953;-72
2022/01/25 03:46:04;;;;;;;;;45.25;38.00;;;;;3.68;64.41;102760.84;5018245;28;45468;-73
2022/01/25 03:50:55;;;;;;;;;54.25;41.00;;;;;3.79;65.32;102774.47;5018258;28;45460;-72
2022/01/25 03:53:20;;;;;;;;;48.00;41.75;;;;;3.51;65.04;102742.13;5018091;28;46183;-73
2022/01/25 03:55:48;;;;;;;;;54.25;41.75;;;;;3.82;64.83;102791.97;5018150;28;45466;-73
2022/01/25 03:58:14;;;;;;;;;54.75;39.00;;;;;3.56;65.65;102748.94;5018166;28;45333;-74
2022/01/25 04:00:40;;;;;;;;;56.25;42.00;;;;;3.88;64.99;102795.25;5016796;28;45453;-73
2022/01/25 04:03:13;;;;;;;;;54.50;42.25;;;;;3.80;65.34;102786.72;4996734;28;45890;-74
2022/01/25 04:08:06;;;;;;;;;54.75;42.75;;;;;3.84;65.66;102788.38;5018430;28;45233;-74
2022/01/25 04:10:32;;;;;;;;;56.00;44.50;;;;;3.93;65.76;102792.44;5032586;28;45298;-73
2022/01/25 04:12:58;;;;;;;;;54.25;40.75;;;;;3.77;65.57;102765.78;5017093;28;46691;-74
2022/01/25 04:15:23;;;;;;;;;55.00;44.00;;;;;4.08;64.82;102807.75;5017631;28;45258;-73
2022/01/25 04:17:56;;;;;;;;;54.75;40.00;;;;;3.88;65.09;102774.19;5018210;28;45452;-74
2022/01/25 04:20:34;;;;;;;;;52.50;41.75;;;;;3.58;65.05;102719.94;5005803;28;45328;-73
2022/01/25 04:25:44;;;;;;;;;64.50;45.75;;;;;3.49;64.99;102707.97;5011051;28;45221;-73
2022/01/25 04:28:09;;;;;;;;;54.75;43.50;;;;;3.99;65.18;102789.59;5004826;28;45567;-73
2022/01/25 04:30:34;;;;;;;;;55.25;43.50;;;;;4.19;64.64;102831.06;5018085;28;45607;-73
2022/01/25 04:33:01;;;;;;;;;50.00;42.75;;;;;4.23;65.13;102819.53;5018679;28;46160;-74
2022/01/25 04:49:12;;;;;;;;;63.75;48.50;;;;;4.15;65.13;102788.19;5012138;28;45524;-72
2022/01/25 04:54:35;;;;;;;;;61.00;47.50;;;;;4.22;64.80;102799.38;5013922;28;45630;-73
2022/01/25 04:59:55;;;;;;;;;56.50;42.25;;;;;4.44;64.05;102823.19;5017771;28;45381;-74
2022/01/25 05:02:40;;;;;;;;;56.25;42.00;;;;;4.46;64.71;102824.00;5014653;28;45209;-74
2022/01/25 05:05:21;;;;;;;;;55.50;43.00;;;;;4.42;64.08;102806.59;5016756;28;45857;-74
2022/01/25 05:10:12;;;;;;;;;52.25;44.00;;;;;4.40;64.38;102824.19;5017320;28;45316;-74
2022/01/25 05:12:46;;;;;;;;;59.25;46.25;;;;;4.56;63.71;102826.22;5016960;28;45224;-73
2022/01/25 05:15:37;;;;;;;;;57.00;45.00;;;;;3.90;63.97;102714.47;5012753;28;47256;-74
2022/01/25 05:23:13;;;;;;;;;52.75;43.00;;;;;4.61;64.19;102828.72;5011152;28;45241;-71
2022/01/25 05:25:38;;;;;;;;;46.75;39.25;;;;;4.57;64.16;102811.28;5014971;28;47559;-75
2022/01/25 05:28:04;;;;;;;;;54.00;44.00;;;;;4.48;63.74;102795.81;5016941;28;45512;-73
2022/01/25 05:30:29;;;;;;;;;59.50;46.25;;;;;4.59;64.25;102814.72;5016584;28;45491;-74
2022/01/25 05:32:54;;;;;;;;;58.00;45.75;;;;;4.63;64.05;102816.34;4998721;28;45529;-72
2022/01/25 05:35:20;;;;;;;;;53.25;42.25;;;;;4.58;64.73;102818.28;4999332;28;48081;-74
2022/01/25 05:37:45;;;;;;;;;60.75;48.25;;;;;4.55;64.03;102803.44;4999060;28;45520;-73
2022/01/25 05:40:16;;;;;;;;;56.75;42.75;;;;;4.58;64.00;102808.59;4999016;28;46011;-74
2022/01/25 05:43:50;;;;;;;;;61.00;46.50;;;;;4.51;63.87;102803.63;5017094;28;45194;-73
2022/01/25 05:48:04;;;;;;;;;56.00;43.50;;;;;4.66;63.99;102831.19;5016214;28;45449;-73
2022/01/25 05:50:30;;;;;;;;;61.50;48.25;;;;;4.07;63.97;102736.72;5016401;28;45464;-72
2022/01/25 05:52:55;;;;;;;;;59.00;42.25;;;;;4.53;64.44;102821.06;5016625;28;45321;-73
2022/01/25 05:55:21;;;;;;;;;60.00;46.00;;;;;4.41;64.60;102796.97;5015315;28;45878;-75
2022/01/25 05:57:46;;;;;;;;;58.25;45.75;;;;;4.50;63.77;102815.94;5012114;28;45905;-76
2022/01/25 06:00:12;;;;;;;;;60.50;47.25;;;;;4.51;64.38;102816.78;5013283;28;45318;-76
2022/01/25 06:02:38;;;;;;;;;57.00;43.50;;;;;4.49;64.53;102814.22;5007152;28;45519;-74
2022/01/25 06:05:05;;;;;;;;;61.00;45.75;;;;;4.50;64.07;102815.94;5014833;28;46650;-73
2022/01/25 06:07:31;;;;;;;;;61.25;48.50;;;;;4.54;63.75;102811.41;5015806;28;45251;-72
2022/01/25 06:10:00;;;;;;;;;60.50;46.00;;;;;4.47;63.59;102797.59;4998318;28;45576;-74
2022/01/25 06:12:25;;;;;;;;;62.50;49.25;;;;;4.54;64.28;102807.00;5013144;28;45590;-75
2022/01/25 06:14:59;;;;;;;;;56.25;45.75;;;;;4.59;64.42;102831.38;5016627;28;45439;-72
2022/01/25 06:17:25;;;;;;;;;60.50;47.75;;;;;4.59;64.16;102823.47;4999575;28;45455;-74
2022/01/25 06:19:50;;;;;;;;;61.75;49.50;;;;;4.62;64.24;102824.31;4994530;28;45528;-74
2022/01/25 06:22:19;;;;;;;;;53.00;43.25;;;;;4.66;64.06;102825.94;4994754;28;45577;-73
2022/01/25 06:25:15;;;;;;;;;;;;;;;;;;;;;
2022/01/25 06:27:48;;;;;;;;;51.25;43.00;;;;;2.46;63.81;102457.41;4984110;28;72201;-74
2022/01/25 06:30:16;;;;;;;;;58.00;47.25;;;;;4.65;64.54;102825.06;4998333;28;45563;-73
2022/01/25 06:32:44;;;;;;;;;60.50;48.50;;;;;4.66;64.60;102825.94;5029604;28;45724;-74
2022/01/25 06:35:13;;;;;;;;;58.25;47.25;;;;;4.52;64.00;102814.09;5029018;28;47605;-73
2022/01/25 06:37:39;;;;;;;;;62.25;49.25;;;;;4.65;64.72;102832.09;4995129;28;45535;-74
2022/01/25 06:40:06;;;;;;;;;59.25;46.25;;;;;4.68;64.23;102834.63;4997208;28;45517;-73
2022/01/25 06:42:32;;;;;;;;;58.50;46.00;;;;;4.68;64.32;102835.50;5013064;28;45713;-72
2022/01/25 06:45:02;;;;;;;;;61.00;46.50;;;;;4.71;64.34;102824.84;4999300;28;46438;-74
2022/01/25 06:47:28;;;;;;;;;62.25;49.00;;;;;4.71;63.51;102823.97;4998117;28;46042;-73
2022/01/25 06:49:54;;;;;;;;;58.75;49.00;;;;;4.75;63.68;102825.56;5001201;28;45257;-73
2022/01/25 06:52:20;;;;;;;;;60.75;48.75;;;;;4.74;63.98;102821.22;5000390;28;45707;-74
2022/01/25 06:54:45;;;;;;;;;54.75;46.00;;;;;4.65;64.14;102795.22;4999929;28;45344;-74
2022/01/25 06:57:11;;;;;;;;;64.75;50.25;;;;;4.81;64.42;102814.84;4998864;28;45444;-72
2022/01/25 06:59:36;;;;;;;;;62.50;48.00;;;;;4.61;64.43;102780.44;4999504;28;45757;-72
2022/01/25 07:02:03;;;;;;;;;53.00;41.25;;;;;4.56;63.88;102778.81;4999815;28;45238;-76
2022/01/25 07:04:29;;;;;;;;;61.75;49.25;;;;;4.46;63.59;102766.91;4997306;28;47917;-73
2022/01/25 07:06:54;;;;;;;;;69.25;51.75;;;;;4.76;64.85;102816.75;4998514;28;45530;-71
2022/01/25 07:09:20;;;;;;;;;66.75;50.50;;;;;4.63;64.39;102792.66;5000279;28;45630;-72
2022/01/25 07:11:45;;;;;;;;;59.50;47.75;;;;;4.86;63.79;102828.69;4999695;28;45480;-74
2022/01/25 07:14:12;;;;;;;;;64.25;46.25;;;;;4.89;63.37;102829.44;5031279;28;47326;-76
2022/01/25 07:16:38;;;;;;;;;64.50;49.75;;;;;4.92;64.60;102824.97;5000787;28;45456;-79
2022/01/25 07:19:03;;;;;;;;;62.75;51.00;;;;;4.81;64.17;102806.94;5007420;28;45443;-80
2022/01/25 07:21:32;;;;;;;;;57.00;47.00;;;;;4.65;63.51;102772.38;5018687;28;45431;-73
2022/01/25 07:23:57;;;;;;;;;59.75;48.75;;;;;4.90;64.44;102819.75;5014870;28;46376;-73
2022/01/25 07:26:23;;;;;;;;;57.00;42.50;;;;;5.01;63.94;102838.69;5019697;28;45326;-75
2022/01/25 07:28:49;;;;;;;;;62.25;50.50;;;;;4.65;64.10;102776.78;5019010;28;45367;-76
2022/01/25 07:31:18;;;;;;;;;63.25;47.75;;;;;4.78;63.81;102794.69;4998373;28;45544;-73
2022/01/25 07:33:43;;;;;;;;;69.25;52.25;;;;;4.95;64.11;102830.97;5015797;28;45448;-71
2022/01/25 07:36:09;;;;;;;;;63.25;49.00;;;;;5.03;64.43;102850.03;5000036;28;45515;-74
2022/01/25 07:38:34;;;;;;;;;63.00;51.00;;;;;4.79;63.81;102803.47;5017976;28;45365;-74
2022/01/25 07:41:00;;;;;;;;;62.00;48.75;;;;;4.96;64.73;102840.59;5005756;28;45354;-71
2022/01/25 07:43:26;;;;;;;;;62.50;48.25;;;;;4.25;64.50;102715.03;5017559;28;47220;-74
2022/01/25 07:45:53;;;;;;;;;65.50;51.75;;;;;5.11;63.92;102855.88;4997774;28;45465;-72
2022/01/25 07:48:21;;;;;;;;;60.00;45.75;;;;;4.78;64.53;102799.97;5010578;28;45473;-72
2022/01/25 07:50:47;;;;;;;;;63.25;51.50;;;;;5.07;64.90;102859.53;5034392;28;45580;-73
2022/01/25 07:53:13;;;;;;;;;71.00;53.75;;;;;5.08;64.74;102855.13;5000270;28;47676;-72
2022/01/25 07:55:39;;;;;;;;;67.50;51.25;;;;;5.02;64.97;102865.91;5017911;28;45344;-73
2022/01/25 07:58:05;;;;;;;;;62.25;50.00;;;;;5.03;64.84;102863.22;5000990;28;45418;-73
2022/01/25 08:00:30;;;;;;;;;65.50;50.00;;;;;4.97;64.78;102859.91;5019588;28;45609;-74
2022/01/25 08:02:56;;;;;;;;;66.25;49.75;;;;;4.98;64.59;102865.13;5018853;28;46562;-73
2022/01/25 08:05:24;;;;;;;;;61.00;48.00;;;;;4.84;65.23;102835.81;5017149;28;45582;-72
2022/01/25 08:07:49;;;;;;;;;68.50;52.75;;;;;5.04;64.91;102870.19;5018901;28;45560;-73
2022/01/25 08:10:15;;;;;;;;;62.25;47.75;;;;;4.95;65.26;102844.16;5014098;28;45376;-72
2022/01/25 08:12:41;;;;;;;;;61.00;48.00;;;;;4.94;64.82;102839.81;5017995;28;45447;-73
2022/01/25 08:15:08;;;;;;;;;65.00;52.50;;;;;5.09;65.13;102868.25;5018226;28;45310;-71
2022/01/25 08:17:33;;;;;;;;;65.75;50.25;;;;;5.08;65.11;102877.06;5018055;28;45322;-73
2022/01/25 08:19:59;;;;;;;;;71.75;53.25;;;;;4.83;65.11;102834.09;5016610;28;45511;-71
2022/01/25 08:22:25;;;;;;;;;59.00;45.00;;;;;5.12;64.90;102877.81;5017759;28;45483;-78
2022/01/25 08:24:51;;;;;;;;;65.50;49.00;;;;;4.76;64.90;102806.22;5017114;28;45657;-71
2022/01/25 08:27:20;;;;;;;;;61.75;48.50;;;;;4.93;64.74;102846.00;5000815;28;45449;-72
2022/01/25 08:29:46;;;;;;;;;62.00;48.50;;;;;5.14;64.42;102890.03;5015625;28;45666;-72
2022/01/25 08:32:12;;;;;;;;;56.25;47.25;;;;;5.06;64.08;102886.81;5018031;28;45689;-71
2022/01/25 08:34:37;;;;;;;;;66.00;53.00;;;;;5.03;64.97;102879.03;5033549;28;46321;-74
2022/01/25 08:37:03;;;;;;;;;62.25;49.00;;;;;4.99;64.77;102866.84;5000137;28;45509;-73
2022/01/25 08:39:28;;;;;;;;;62.25;47.25;;;;;5.02;64.52;102872.03;5018342;28;45368;-74
2022/01/25 08:41:54;;;;;;;;;62.75;47.25;;;;;4.92;64.87;102860.09;5017457;28;46517;-71
2022/01/25 08:44:19;;;;;;;;;59.25;47.50;;;;;5.13;63.96;102885.66;5016299;28;45471;-72
2022/01/25 08:46:45;;;;;;;;;63.00;49.25;;;;;5.14;64.41;102887.38;5000247;28;45477;-73
2022/01/25 08:49:10;;;;;;;;;67.25;46.00;;;;;4.80;64.64;102829.75;5018003;28;45462;-72
2022/01/25 08:51:36;;;;;;;;;66.75;51.25;;;;;5.04;64.26;102861.44;4996418;28;46031;-73
2022/01/25 08:54:02;;;;;;;;;60.25;47.25;;;;;5.10;63.92;102875.25;5015209;28;45211;-73
2022/01/25 08:56:27;;;;;;;;;58.75;45.50;;;;;5.12;64.89;102875.19;5033289;28;45449;-72
2022/01/25 08:58:54;;;;;;;;;63.75;47.50;;;;;5.08;64.91;102877.06;5015791;28;45275;-72
2022/01/25 09:01:19;;;;;;;;;58.25;45.50;;;;;5.02;64.48;102864.13;4999358;28;47605;-72
2022/01/25 09:03:45;;;;;;;;;62.25;48.50;;;;;5.13;64.20;102882.16;5017946;28;45530;-75
2022/01/25 09:06:10;;;;;;;;;61.75;48.00;;;;;5.01;64.91;102857.13;5017558;28;45476;-75
2022/01/25 09:08:36;;;;;;;;;61.00;48.00;;;;;5.17;64.18;102871.44;5016991;28;45611;-74
2022/01/25 09:11:04;;;;;;;;;59.50;45.75;;;;;5.16;64.38;102880.28;4999713;28;47010;-73
2022/01/25 09:13:31;;;;;;;;;63.75;47.00;;;;;5.22;64.54;102888.91;5032354;28;45432;-75
2022/01/25 09:16:00;;;;;;;;;62.00;47.75;;;;;4.98;65.15;102859.84;5017272;28;45398;-73
2022/01/25 09:18:26;;;;;;;;;58.75;46.00;;;;;4.95;64.35;102856.47;4999540;28;45381;-74
2022/01/25 09:20:52;;;;;;;;;59.00;45.75;;;;;4.33;64.32;102744.56;5017534;28;45678;-73
2022/01/25 09:23:19;;;;;;;;;63.75;49.75;;;;;4.66;64.69;102799.56;4996329;28;45513;-73
2022/01/25 09:25:47;;;;;;;;;60.50;46.25;;;;;5.07;64.20;102880.63;5015525;28;45508;-74
2022/01/25 09:28:14;;;;;;;;;58.50;46.25;;;;;4.93;63.85;102851.25;4998441;28;45541;-73
2022/01/25 09:30:39;;;;;;;;;66.25;49.50;;;;;4.95;64.25;102877.56;4999009;28;47371;-72
2022/01/25 09:33:05;;;;;;;;;61.50;48.50;;;;;5.04;65.12;102887.78;4998894;28;45516;-73
2022/01/25 09:35:31;;;;;;;;;73.00;52.75;;;;;4.96;65.06;102872.22;5017610;28;45865;-72
2022/01/25 09:37:57;;;;;;;;;33.00;21.75;;;;;5.10;65.12;102884.94;5016394;28;45427;-73
2022/01/25 09:40:24;;;;;;;;;62.00;49.50;;;;;5.09;64.61;102880.56;4999040;28;48567;-74
2022/01/25 09:42:55;;;;;;;;;64.50;48.50;;;;;5.06;63.93;102871.00;5016956;28;45398;-72
2022/01/25 09:45:20;;;;;;;;;55.00;45.50;;;;;5.26;64.48;102895.78;4999057;28;45751;-73
2022/01/25 09:47:47;;;;;;;;;57.50;46.50;;;;;5.06;63.79;102854.31;5032381;28;45476;-72
2022/01/25 09:50:13;;;;;;;;;65.00;48.00;;;;;5.45;64.39;102904.72;4999094;28;46701;-73
2022/01/25 09:52:41;;;;;;;;;60.25;44.50;;;;;5.20;64.23;102859.91;5017099;28;45377;-73
2022/01/25 09:55:22;;;;;;;;;58.00;45.00;;;;;5.23;63.71;102858.97;5016883;28;46342;-72
2022/01/25 09:57:49;;;;;;;;;62.50;49.00;;;;;5.53;63.84;102914.97;5017026;28;45365;-71
2022/01/25 10:00:29;;;;;;;;;63.50;50.25;;;;;5.53;63.48;102918.47;5016040;28;45444;-74
2022/01/25 10:05:53;;;;;;;;;57.25;47.50;;;;;5.57;63.39;102896.31;5014092;28;45497;-76
2022/01/25 10:08:30;;;;;;;;;65.50;50.00;;;;;5.43;63.51;102872.25;5016534;28;45366;-72
2022/01/25 10:11:26;;;;;;;;;68.50;53.50;;;;;5.55;63.70;102898.16;5032160;28;46790;-73
2022/01/25 10:14:23;;;;;;;;;58.25;46.00;;;;;4.33;63.07;102676.09;5012653;28;45426;-75
2022/01/25 10:17:01;;;;;;;;;64.50;49.25;;;;;4.97;63.03;102788.75;5015613;28;45345;-73
2022/01/25 10:19:51;;;;;;;;;61.25;48.25;;;;;4.25;62.93;102665.00;5015957;28;45401;-76
2022/01/25 10:22:23;;;;;;;;;62.50;52.25;;;;;4.50;63.22;102705.31;5018490;28;46691;-74
2022/01/25 10:24:51;;;;;;;;;67.00;49.50;;;;;4.43;63.04;102687.16;4997292;28;45622;-76
2022/01/25 10:30:24;;;;;;;;;65.50;50.50;;;;;5.78;63.28;102915.72;5011977;28;45423;-77
2022/01/25 10:35:48;;;;;;;;;67.25;51.25;;;;;5.86;63.05;102918.09;5008174;28;45345;-78
2022/01/25 10:39:02;;;;;;;;;60.75;47.00;;;;;5.74;62.67;102922.91;5032701;28;45442;-78
2022/01/25 10:41:55;;;;;;;;;65.50;51.00;;;;;5.78;63.06;102921.00;4988801;28;45555;-79
2022/01/25 10:48:29;;;;;;;;;62.00;48.75;;;;;5.28;62.75;102857.88;5017539;28;45306;-78
2022/01/25 10:51:04;;;;;;;;;65.00;51.75;;;;;4.11;63.15;102659.38;4918250;28;45657;-76
2022/01/25 10:53:37;;;;;;;;;60.00;48.00;;;;;5.26;62.63;102849.16;4918045;28;45535;-77
2022/01/25 10:56:21;;;;;;;;;;;;;;;;;;;;;
2022/01/25 10:59:02;;;;;;;;;61.50;48.50;;;;;4.09;62.91;102650.66;5004458;28;72660;-74
2022/01/25 11:02:01;;;;;;;;;71.50;52.75;;;;;5.75;62.49;102913.22;5017347;28;45250;-75
2022/01/25 11:04:37;;;;;;;;;56.50;44.25;;;;;4.45;63.28;102683.56;5017974;28;45532;-77
2022/01/25 11:07:38;;;;;;;;;65.50;49.00;;;;;5.85;62.57;102916.38;5016768;28;45932;-76
2022/01/25 11:10:21;;;;;;;;;66.50;47.25;;;;;4.83;62.75;102731.31;5016132;28;45448;-73
2022/01/25 11:13:07;;;;;;;;;61.00;51.00;;;;;5.97;62.74;102908.84;5011535;28;45497;-74
2022/01/25 11:15:38;;;;;;;;;64.25;50.75;;;;;6.07;62.29;102906.69;5026095;28;45476;-73
2022/01/25 11:18:05;;;;;;;;;60.00;48.00;;;;;5.63;62.29;102832.75;4987880;28;46889;-75
2022/01/25 11:20:37;;;;;;;;;69.00;52.25;;;;;6.12;61.86;102909.16;4997763;28;45412;-76
2022/01/25 11:23:06;;;;;;;;;62.25;45.50;;;;;4.97;62.25;102712.31;5020878;28;45278;-74
2022/01/25 11:25:40;;;;;;;;;67.50;52.00;;;;;6.12;62.30;102917.94;5021548;28;45350;-73
2022/01/25 11:28:09;;;;;;;;;63.00;45.50;;;;;5.86;61.90;102868.78;5002124;28;47212;-74
2022/01/25 11:30:41;;;;;;;;;61.00;50.00;;;;;5.24;62.54;102760.47;5020686;28;45367;-76
2022/01/25 11:33:15;;;;;;;;;43.25;38.50;;;;;5.95;62.40;102875.50;5018675;28;45414;-77
2022/01/25 11:35:41;;;;;;;;;60.75;47.75;;;;;6.19;62.14;102910.59;5018895;28;45597;-76
2022/01/25 11:38:10;;;;;;;;;57.75;47.25;;;;;6.24;61.65;102917.44;5000993;28;47569;-76
2022/01/25 11:40:41;;;;;;;;;66.50;49.00;;;;;6.29;61.66;102911.97;5000210;28;45606;-72
2022/01/25 11:43:12;;;;;;;;;57.50;46.50;;;;;6.16;61.44;102890.47;5003932;28;45433;-75
2022/01/25 11:45:43;;;;;;;;;66.25;51.25;;;;;6.12;61.14;102882.75;5018530;28;45431;-75
2022/01/25 11:48:12;;;;;;;;;66.00;49.00;;;;;6.24;61.73;102898.97;5018827;28;45250;-75
2022/01/25 11:50:43;;;;;;;;;67.25;50.25;;;;;6.18;61.67;102893.91;5014988;28;45537;-74
2022/01/25 11:53:11;;;;;;;;;67.50;51.50;;;;;6.14;61.43;102886.19;5016981;28;45530;-75
2022/01/25 11:55:43;;;;;;;;;67.00;49.50;;;;;6.19;62.00;102906.19;5019565;28;45362;-75
2022/01/25 11:58:15;;;;;;;;;61.00;49.00;;;;;5.90;61.63;102851.94;5019061;28;45664;-75
2022/01/25 12:01:15;;;;;;;;;56.25;46.50;;;;;6.26;61.85;102897.09;5011074;28;45350;-77
2022/01/25 12:03:46;;;;;;;;;62.75;47.25;;;;;6.38;61.31;102901.00;4967576;28;45522;-78
2022/01/25 12:06:30;;;;;;;;;58.25;47.00;;;;;6.33;61.24;102877.41;5019474;28;45339;-76
2022/01/25 12:09:08;;;;;;;;;63.75;47.50;;;;;5.02;60.70;102655.00;5018792;28;45504;-77
2022/01/25 12:11:52;;;;;;;;;62.25;47.75;;;;;6.49;61.08;102903.22;4995385;28;45555;-78
2022/01/25 12:14:32;;;;;;;;;64.50;49.25;;;;;6.55;61.26;102908.22;5019339;28;45281;-76
2022/01/25 12:17:03;;;;;;;;;62.25;49.25;;;;;6.47;61.29;102876.00;5018677;28;45502;-76
2022/01/25 12:19:48;;;;;;;;;65.25;49.75;;;;;6.55;61.16;102900.28;4997182;28;48096;-77
2022/01/25 12:25:14;;;;;;;;;69.75;50.00;;;;;5.08;60.58;102625.75;5001395;28;45559;-75
2022/01/25 12:27:51;;;;;;;;;57.25;42.75;;;;;6.56;60.40;102867.66;5013195;28;45528;-76
2022/01/25 12:30:31;;;;;;;;;70.50;51.50;;;;;5.29;60.86;102653.03;4999152;28;46394;-76
2022/01/25 12:33:05;;;;;;;;;68.25;49.25;;;;;6.72;60.93;102874.00;4992066;28;45250;-76
2022/01/25 12:35:34;;;;;;;;;71.25;53.75;;;;;6.76;60.59;102872.06;4998408;28;45526;-78
2022/01/25 12:38:04;;;;;;;;;61.50;47.00;;;;;6.69;60.07;102853.84;5000214;28;45333;-75
2022/01/25 12:40:34;;;;;;;;;54.75;45.50;;;;;6.58;60.56;102834.09;4995204;28;45652;-76
2022/01/25 12:43:08;;;;;;;;;64.50;50.25;;;;;6.84;59.92;102868.19;5030400;28;46445;-75
2022/01/25 12:45:40;;;;;;;;;64.50;51.00;;;;;6.86;60.09;102870.75;5013176;28;45496;-77
2022/01/25 12:48:08;;;;;;;;;60.75;46.75;;;;;6.87;60.24;102873.34;4990380;28;45283;-78
2022/01/25 12:50:39;;;;;;;;;62.25;50.00;;;;;6.61;60.16;102812.84;4998602;28;45562;-75
2022/01/25 12:53:07;;;;;;;;;68.50;51.25;;;;;6.83;59.65;102834.75;4995210;28;45325;-77
2022/01/25 12:55:36;;;;;;;;;62.50;49.00;;;;;6.89;59.96;102845.03;4999017;28;45254;-77
2022/01/25 12:58:03;;;;;;;;;63.50;50.00;;;;;6.68;59.65;102809.84;4998184;28;45575;-76
2022/01/25 13:00:38;;;;;;;;;67.75;52.00;;;;;6.77;59.86;102819.13;4997709;28;46534;-79
2022/01/25 13:03:23;;;;;;;;;62.25;47.75;;;;;6.94;59.90;102864.19;4997967;28;45483;-77
2022/01/25 13:05:52;;;;;;;;;63.75;50.00;;;;;6.94;59.85;102861.53;5010655;28;45445;-75
2022/01/25 13:08:35;;;;;;;;;65.25;50.00;;;;;6.85;59.52;102847.91;4997076;28;45560;-75
2022/01/25 13:11:47;;;;;;;;;63.75;48.50;;;;;6.94;60.03;102848.31;4995571;28;45493;-76
2022/01/25 13:14:18;;;;;;;;;67.75;51.75;;;;;6.90;59.92;102836.19;5029551;28;45343;-75
2022/01/25 13:17:02;;;;;;;;;64.50;49.25;;;;;6.68;59.57;102808.97;4997788;28;45491;-75
2022/01/25 13:19:37;;;;;;;;;70.75;52.25;;;;;6.95;59.89;102839.47;4990174;28;45498;-78
2022/01/25 13:22:11;;;;;;;;;64.75;50.75;;;;;6.78;59.82;102814.72;4997778;28;46068;-73
2022/01/25 13:24:46;;;;;;;;;65.50;49.50;;;;;6.76;60.41;102817.41;5012684;28;45841;-78
2022/01/25 13:27:14;;;;;;;;;62.75;46.75;;;;;6.68;59.73;102815.13;4997213;28;45515;-75
2022/01/25 13:32:32;;;;;;;;;67.50;51.75;;;;;6.89;60.19;102845.03;4984691;28;45446;-77
2022/01/25 13:35:46;;;;;;;;;71.50;52.75;;;;;6.90;60.10;102841.47;4996820;28;45500;-77
2022/01/25 13:38:47;;;;;;;;;63.50;49.25;;;;;6.87;59.49;102835.47;4981930;28;45678;-76
2022/01/25 13:41:27;;;;;;;;;65.75;50.50;;;;;5.67;60.02;102644.34;4999458;28;45241;-76
2022/01/25 13:46:35;;;;;;;;;64.50;51.25;;;;;6.88;60.46;102845.97;4997218;28;45184;-74